createdAt,value
2018-07-22T00:00:11.613Z,99505.42
2018-07-22T00:02:40.743Z,99514.88
2018-07-22T00:05:09.478Z,99513.63
2018-07-22T00:07:38.335Z,99516.44
2018-07-22T00:10:10.733Z,99515.28
2018-07-22T00:12:39.237Z,99516.74
2018-07-22T00:15:07.983Z,99515.50
2018-07-22T00:17:36.720Z,99522.28
2018-07-22T00:20:05.483Z,99521.06
2018-07-22T00:22:34.119Z,99520.57
2018-07-22T00:25:02.753Z,99520.10
2018-07-22T00:27:31.343Z,99522.03
2018-07-22T00:29:59.968Z,99533.09
2018-07-22T00:32:28.596Z,99533.56
2018-07-22T00:34:57.185Z,99537.11
2018-07-22T00:37:25.761Z,99533.19
2018-07-22T00:39:54.399Z,99538.91
2018-07-22T00:42:23.012Z,99537.58
2018-07-22T00:44:51.634Z,99538.07
2018-07-22T00:47:20.209Z,99537.95
2018-07-22T00:49:49.128Z,99534.44
2018-07-22T00:52:17.941Z,99527.75
2018-07-22T00:54:46.584Z,99527.75
2018-07-22T00:57:15.253Z,99535.77
2018-07-22T00:59:43.939Z,99529.55
2018-07-22T01:02:12.731Z,99534.44
2018-07-22T01:04:41.332Z,99529.55
2018-07-22T01:07:10.045Z,99535.03
2018-07-22T01:09:38.644Z,99532.91
2018-07-22T01:12:07.330Z,99537.05
2018-07-22T01:14:35.981Z,99530.08
2018-07-22T01:17:04.671Z,99536.98
2018-07-22T01:19:33.316Z,99537.16
2018-07-22T01:22:01.916Z,99541.39
2018-07-22T01:24:30.599Z,99531.59
2018-07-22T01:26:59.351Z,99534.45
2018-07-22T01:29:27.997Z,99539.17
2018-07-22T01:31:56.745Z,99535.80
2018-07-22T01:34:25.422Z,99539.34
2018-07-22T01:36:54.096Z,99541.38
2018-07-22T01:39:22.912Z,99538.14
2018-07-22T01:41:51.557Z,99534.05
2018-07-22T01:44:20.264Z,99541.50
2018-07-22T01:46:48.991Z,99535.13
2018-07-22T01:49:17.749Z,99540.30
2018-07-22T01:51:46.434Z,99543.26
2018-07-22T01:54:15.045Z,99545.35
2018-07-22T01:56:43.646Z,99547.39
2018-07-22T01:59:12.326Z,99548.52
2018-07-22T02:01:40.948Z,99550.91
2018-07-22T02:04:09.551Z,99549.86
2018-07-22T02:06:38.134Z,99547.89
2018-07-22T02:09:08.318Z,99548.94
2018-07-22T02:11:37.022Z,99549.08
2018-07-22T02:14:05.664Z,99548.31
2018-07-22T02:16:34.247Z,99547.56
2018-07-22T02:19:02.877Z,99557.37
2018-07-22T02:21:31.454Z,99556.53
2018-07-22T02:23:59.981Z,99554.14
2018-07-22T02:26:28.588Z,99558.23
2018-07-22T02:28:57.185Z,99558.23
2018-07-22T02:31:25.859Z,99557.86
2018-07-22T02:33:54.505Z,99563.69
2018-07-22T02:36:23.190Z,99558.52
2018-07-22T02:38:51.847Z,99566.52
2018-07-22T02:41:20.533Z,99568.44
2018-07-22T02:43:49.147Z,99574.81
2018-07-22T02:46:18.107Z,99580.81
2018-07-22T02:48:46.731Z,99579.59
2018-07-22T02:51:15.349Z,99579.76
2018-07-22T02:53:43.933Z,99583.00
2018-07-22T02:56:12.717Z,99586.25
2018-07-22T02:58:41.373Z,99586.44
2018-07-22T03:01:10.001Z,99584.31
2018-07-22T03:03:38.679Z,99585.77
2018-07-22T03:06:07.296Z,99581.01
2018-07-22T03:08:36.039Z,99583.84
2018-07-22T03:11:04.716Z,99583.08
2018-07-22T03:13:33.388Z,99582.32
2018-07-22T03:16:02.141Z,99582.52
2018-07-22T03:18:30.850Z,99583.63
2018-07-22T03:20:59.548Z,99581.05
2018-07-22T03:23:28.371Z,99583.83
2018-07-22T03:25:57.074Z,99584.41
2018-07-22T03:28:25.688Z,99591.61
2018-07-22T03:30:54.607Z,99596.18
2018-07-22T03:33:23.273Z,99600.38
2018-07-22T03:35:51.947Z,99593.41
2018-07-22T03:38:20.590Z,99595.28
2018-07-22T03:40:49.238Z,99599.73
2018-07-22T03:43:17.976Z,99606.52
2018-07-22T03:45:46.657Z,99610.59
2018-07-22T03:48:15.402Z,99611.16
2018-07-22T03:50:44.104Z,99613.45
2018-07-22T03:53:12.817Z,99612.11
2018-07-22T03:55:41.484Z,99616.19
2018-07-22T03:58:10.208Z,99618.94
2018-07-22T04:00:39.064Z,99616.77
2018-07-22T04:03:07.792Z,99616.65
2018-07-22T04:05:36.455Z,99621.60
2018-07-22T04:08:05.226Z,99626.39
2018-07-22T04:10:34.040Z,99631.31
2018-07-22T04:13:02.801Z,99626.28
2018-07-22T04:15:31.560Z,99634.66
2018-07-22T04:18:00.272Z,99629.25
2018-07-22T04:20:28.967Z,99630.51
2018-07-22T04:22:57.696Z,99630.73
2018-07-22T04:25:26.353Z,99631.88
2018-07-22T04:27:55.080Z,99635.60
2018-07-22T04:30:24.498Z,99637.62
2018-07-22T04:32:53.130Z,99633.92
2018-07-22T04:35:21.756Z,99637.73
2018-07-22T04:37:50.470Z,99641.27
2018-07-22T04:40:19.097Z,99647.06
2018-07-22T04:42:47.704Z,99646.30
2018-07-22T04:45:16.358Z,99644.97
2018-07-22T04:47:45.095Z,99643.63
2018-07-22T04:50:13.713Z,99645.92
2018-07-22T04:52:42.421Z,99649.54
2018-07-22T04:55:11.117Z,99649.54
2018-07-22T04:57:39.945Z,99650.87
2018-07-22T05:00:08.668Z,99649.16
2018-07-22T05:02:37.462Z,99662.30
2018-07-22T05:05:06.143Z,99659.17
2018-07-22T05:07:34.898Z,99664.31
2018-07-22T05:10:03.548Z,99664.70
2018-07-22T05:12:32.341Z,99665.00
2018-07-22T05:15:01.013Z,99667.02
2018-07-22T05:17:29.735Z,99664.64
2018-07-22T05:19:58.493Z,99670.09
2018-07-22T05:22:27.365Z,99663.53
2018-07-22T05:24:56.057Z,99666.59
2018-07-22T05:27:24.729Z,99670.51
2018-07-22T05:29:53.386Z,99664.70
2018-07-22T05:32:22.127Z,99666.84
2018-07-22T05:34:50.804Z,99666.27
2018-07-22T05:37:19.456Z,99668.95
2018-07-22T05:39:48.199Z,99661.71
2018-07-22T05:42:17.024Z,99668.86
2018-07-22T05:44:45.765Z,99664.48
2018-07-22T05:47:14.545Z,99668.37
2018-07-22T05:49:43.188Z,99673.13
2018-07-22T05:52:11.785Z,99667.11
2018-07-22T05:54:40.451Z,99676.36
2018-07-22T05:57:09.164Z,99677.16
2018-07-22T05:59:37.787Z,99678.39
2018-07-22T06:02:06.454Z,99681.33
2018-07-22T06:04:35.110Z,99687.84
2018-07-22T06:07:04.014Z,99688.08
2018-07-22T06:09:32.745Z,99689.31
2018-07-22T06:12:01.399Z,99693.76
2018-07-22T06:14:30.155Z,99701.60
2018-07-22T06:16:58.821Z,99691.70
2018-07-22T06:19:27.509Z,99693.64
2018-07-22T06:21:56.246Z,99691.84
2018-07-22T06:24:25.178Z,99697.28
2018-07-22T06:26:53.850Z,99693.45
2018-07-22T06:29:22.635Z,99693.55
2018-07-22T06:31:51.297Z,99691.23
2018-07-22T06:34:20.274Z,99696.16
2018-07-22T06:36:48.940Z,99692.29
2018-07-22T06:39:17.588Z,99696.27
2018-07-22T06:41:46.266Z,99693.00
2018-07-22T06:44:14.920Z,99702.03
2018-07-22T06:46:43.591Z,99709.34
2018-07-22T06:49:12.328Z,99704.64
2018-07-22T06:51:41.115Z,99705.22
2018-07-22T06:54:09.927Z,99706.09
2018-07-22T06:56:38.578Z,99709.36
2018-07-22T06:59:07.494Z,99708.55
2018-07-22T07:01:36.228Z,99714.00
2018-07-22T07:04:04.937Z,99710.78
2018-07-22T07:06:34.589Z,99708.36
2018-07-22T07:09:03.373Z,99709.13
2018-07-22T07:11:32.105Z,99713.95
2018-07-22T07:14:00.780Z,99715.81
2018-07-22T07:16:29.454Z,99721.77
2018-07-22T07:18:58.154Z,99717.92
2018-07-22T07:21:26.815Z,99725.71
2018-07-22T07:24:01.817Z,99730.80
2018-07-22T07:26:30.471Z,99723.66
2018-07-22T07:28:59.203Z,99728.53
2018-07-22T07:31:27.951Z,99734.51
2018-07-22T07:33:56.839Z,99728.14
2018-07-22T07:36:25.518Z,99731.64
2018-07-22T07:38:54.179Z,99735.03
2018-07-22T07:41:22.843Z,99734.39
2018-07-22T07:43:51.380Z,99739.64
2018-07-22T07:46:20.016Z,99730.95
2018-07-22T07:48:48.588Z,99735.89
2018-07-22T07:51:17.158Z,99734.69
2018-07-22T07:53:45.714Z,99739.72
2018-07-22T07:56:14.371Z,99744.84
2018-07-22T07:58:42.949Z,99737.02
2018-07-22T08:01:11.583Z,99738.04
2018-07-22T08:03:40.155Z,99739.52
2018-07-22T08:06:08.782Z,99734.81
2018-07-22T08:08:37.406Z,99738.10
2018-07-22T08:11:05.984Z,99736.95
2018-07-22T08:13:35.068Z,99739.73
2018-07-22T08:16:03.745Z,99736.06
2018-07-22T08:18:32.348Z,99734.80
2018-07-22T08:21:00.961Z,99733.46
2018-07-22T08:23:29.652Z,99731.00
2018-07-22T08:25:58.502Z,99730.67
2018-07-22T08:28:38.181Z,99733.09
2018-07-22T08:31:06.856Z,99732.78
2018-07-22T08:33:35.414Z,99729.23
2018-07-22T08:36:04.078Z,99733.73
2018-07-22T08:38:32.675Z,99734.72
2018-07-22T08:41:01.339Z,99732.17
2018-07-22T08:43:29.988Z,99732.88
2018-07-22T08:45:58.644Z,99738.98
2018-07-22T08:48:27.253Z,99736.66
2018-07-22T08:50:55.973Z,99739.77
2018-07-22T08:53:24.564Z,99735.81
2018-07-22T08:55:53.029Z,99735.52
2018-07-22T08:58:21.826Z,99742.25
2018-07-22T09:00:50.670Z,99746.81
2018-07-22T09:03:19.236Z,99761.39
2018-07-22T09:05:47.733Z,99742.30
2018-07-22T09:08:16.266Z,99738.87
2018-07-22T09:10:44.798Z,99746.09
2018-07-22T09:13:13.256Z,99738.41
2018-07-22T09:15:41.742Z,99740.80
2018-07-22T09:18:10.350Z,99742.33
2018-07-22T09:20:38.875Z,99746.24
2018-07-22T09:23:07.406Z,99746.66
2018-07-22T09:25:35.924Z,99755.22
2018-07-22T09:28:04.646Z,99755.00
2018-07-22T09:30:33.341Z,99761.86
2018-07-22T09:33:01.927Z,99760.52
2018-07-22T09:35:30.547Z,99760.98
2018-07-22T09:37:59.946Z,99764.80
2018-07-22T09:40:28.633Z,99766.62
2018-07-22T09:42:57.284Z,99765.52
2018-07-22T09:45:25.937Z,99760.98
2018-07-22T09:47:55.020Z,99767.57
2018-07-22T09:50:23.656Z,99767.69
2018-07-22T09:52:52.230Z,99761.75
2018-07-22T09:55:20.740Z,99762.86
2018-07-22T09:57:49.621Z,99753.36
2018-07-22T10:00:23.444Z,99759.16
2018-07-22T10:02:52.012Z,99759.97
2018-07-22T10:05:20.471Z,99762.61
2018-07-22T10:07:49.131Z,99753.22
2018-07-22T10:10:17.599Z,99760.61
2018-07-22T10:12:46.463Z,99748.96
2018-07-22T10:15:16.930Z,99754.50
2018-07-22T10:17:45.579Z,99754.22
2018-07-22T10:20:14.186Z,99754.73
2018-07-22T10:22:42.810Z,99754.58
2018-07-22T10:25:11.500Z,99756.73
2018-07-22T10:27:40.765Z,99758.63
2018-07-22T10:30:09.315Z,99759.84
2018-07-22T10:32:37.859Z,99757.91
2018-07-22T10:35:06.450Z,99756.03
2018-07-22T10:37:34.997Z,99750.48
2018-07-22T10:40:03.858Z,99754.70
2018-07-22T10:42:32.663Z,99748.01
2018-07-22T10:45:03.688Z,99750.77
2018-07-22T10:47:32.405Z,99753.84
2018-07-22T10:50:01.336Z,99746.06
2018-07-22T10:52:30.076Z,99750.47
2018-07-22T10:54:58.625Z,99746.02
2018-07-22T10:57:27.353Z,99740.72
2018-07-22T10:59:56.174Z,99750.13
2018-07-22T11:02:24.878Z,99745.01
2018-07-22T11:04:53.359Z,99743.55
2018-07-22T11:07:22.381Z,99742.41
2018-07-22T11:09:50.820Z,99740.30
2018-07-22T11:12:19.431Z,99732.80
2018-07-22T11:14:48.302Z,99736.72
2018-07-22T11:17:16.801Z,99728.63
2018-07-22T11:19:45.359Z,99726.50
2018-07-22T11:22:13.845Z,99731.60
2018-07-22T11:24:42.367Z,99725.29
2018-07-22T11:27:10.816Z,99722.38
2018-07-22T11:29:39.262Z,99730.59
2018-07-22T11:32:07.797Z,99730.73
2018-07-22T11:34:36.346Z,99729.71
2018-07-22T11:37:04.941Z,99720.78
2018-07-22T11:39:33.414Z,99718.17
2018-07-22T11:42:01.895Z,99722.20
2018-07-22T11:44:30.524Z,99724.47
2018-07-22T11:46:59.036Z,99712.18
2018-07-22T11:49:27.546Z,99707.14
2018-07-22T11:51:56.189Z,99710.34
2018-07-22T11:54:24.731Z,99713.48
2018-07-22T11:56:53.232Z,99708.72
2018-07-22T11:59:21.804Z,99706.61
2018-07-22T12:01:50.406Z,99705.41
2018-07-22T12:04:18.893Z,99706.84
2018-07-22T12:06:48.448Z,99702.94
2018-07-22T12:09:16.959Z,99698.09
2018-07-22T12:11:45.414Z,99693.31
2018-07-22T12:14:13.970Z,99690.38
2018-07-22T12:16:42.531Z,99690.08
2018-07-22T12:19:11.006Z,99695.06
2018-07-22T12:21:39.520Z,99685.95
2018-07-22T12:24:07.994Z,99685.66
2018-07-22T12:26:36.435Z,99677.91
2018-07-22T12:29:04.953Z,99671.34
2018-07-22T12:31:33.411Z,99665.95
2018-07-22T12:34:01.973Z,99665.11
2018-07-22T12:36:30.455Z,99671.27
2018-07-22T12:38:59.080Z,99665.73
2018-07-22T12:41:27.728Z,99660.97
2018-07-22T12:43:56.304Z,99661.90
2018-07-22T12:46:25.191Z,99660.14
2018-07-22T12:48:53.746Z,99657.89
2018-07-22T12:51:22.277Z,99656.53
2018-07-22T12:53:50.825Z,99656.28
2018-07-22T12:56:19.325Z,99666.11
2018-07-22T12:58:48.000Z,99668.97
2018-07-22T13:01:16.523Z,99656.06
2018-07-22T13:03:45.101Z,99658.97
2018-07-22T13:06:13.650Z,99652.33
2018-07-22T13:08:42.162Z,99655.14
2018-07-22T13:11:10.773Z,99657.05
2018-07-22T13:13:39.545Z,99653.00
2018-07-22T13:16:08.471Z,99648.73
2018-07-22T13:18:37.236Z,99649.15
2018-07-22T13:21:06.056Z,99650.33
2018-07-22T13:23:34.646Z,99656.20
2018-07-22T13:26:03.284Z,99650.15
2018-07-22T13:28:32.224Z,99656.59
2018-07-22T13:31:01.209Z,99654.61
2018-07-22T13:33:29.832Z,99659.06
2018-07-22T13:35:58.759Z,99666.03
2018-07-22T13:38:27.528Z,99660.79
2018-07-22T13:40:56.222Z,99665.53
2018-07-22T13:43:25.044Z,99661.75
2018-07-22T13:45:53.724Z,99681.80
2018-07-22T13:48:23.365Z,99657.75
2018-07-22T13:50:52.091Z,99663.72
2018-07-22T13:53:20.793Z,99666.13
2018-07-22T13:55:49.461Z,99661.05
2018-07-22T13:58:18.075Z,99658.23
2018-07-22T14:00:46.864Z,99656.94
2018-07-22T14:03:15.563Z,99662.73
2018-07-22T14:05:44.299Z,99658.19
2018-07-22T14:08:12.933Z,99661.55
2018-07-22T14:10:41.600Z,99664.63
2018-07-22T14:13:10.188Z,99667.68
2018-07-22T14:15:38.899Z,99671.45
2018-07-22T14:18:07.626Z,99672.84
2018-07-22T14:20:36.336Z,99670.63
2018-07-22T14:23:05.088Z,99661.30
2018-07-22T14:25:33.746Z,99661.48
2018-07-22T14:28:02.514Z,99666.57
2018-07-22T14:30:31.220Z,99659.78
2018-07-22T14:32:59.882Z,99652.48
2018-07-22T14:35:28.638Z,99652.63
2018-07-22T14:37:57.369Z,99647.69
2018-07-22T14:40:26.084Z,99647.34
2018-07-22T14:42:54.873Z,99645.27
2018-07-22T14:45:23.443Z,99648.30
2018-07-22T14:47:52.012Z,99653.75
2018-07-22T14:50:20.735Z,99652.55
2018-07-22T14:52:49.361Z,99655.96
2018-07-22T14:55:17.925Z,99655.84
2018-07-22T14:57:46.660Z,99654.00
2018-07-22T15:00:15.361Z,99655.03
2018-07-22T15:02:43.969Z,99651.98
2018-07-22T15:05:12.628Z,99653.33
2018-07-22T15:07:41.280Z,99655.72
2018-07-22T15:10:09.865Z,99658.29
2018-07-22T15:12:38.540Z,99656.91
2018-07-22T15:15:07.287Z,99651.13
2018-07-22T15:17:35.865Z,99655.69
2018-07-22T15:20:04.853Z,99655.31
2018-07-22T15:22:33.416Z,99656.14
2018-07-22T15:25:02.058Z,99671.67
2018-07-22T15:27:30.764Z,99664.48
2018-07-22T15:29:59.439Z,99669.67
2018-07-22T15:32:28.380Z,99666.00
2018-07-22T15:34:57.177Z,99671.81
2018-07-22T15:37:25.684Z,99675.45
2018-07-22T15:39:54.328Z,99684.90
2018-07-22T15:42:22.931Z,99687.58
2018-07-22T15:44:51.780Z,99685.95
2018-07-22T15:47:20.400Z,99690.59
2018-07-22T15:49:49.145Z,99689.53
2018-07-22T15:52:17.617Z,99680.06
2018-07-22T15:54:46.367Z,99684.28
2018-07-22T15:57:15.110Z,99692.20
2018-07-22T15:59:43.789Z,99693.02
2018-07-22T16:02:12.677Z,99694.77
2018-07-22T16:04:41.415Z,99696.34
2018-07-22T16:07:09.948Z,99693.63
2018-07-22T16:09:38.551Z,99691.02
2018-07-22T16:12:07.120Z,99692.92
2018-07-22T16:14:35.609Z,99692.54
2018-07-22T16:17:04.124Z,99686.64
2018-07-22T16:19:32.691Z,99691.80
2018-07-22T16:22:01.316Z,99691.02
2018-07-22T16:24:30.231Z,99690.66
2018-07-22T16:26:58.725Z,99689.63
2018-07-22T16:29:27.310Z,99694.14
2018-07-22T16:31:55.856Z,99694.45
2018-07-22T16:34:24.673Z,99691.60
2018-07-22T16:36:53.161Z,99692.77
2018-07-22T16:39:21.540Z,99689.31
2018-07-22T16:41:50.027Z,99692.72
2018-07-22T16:44:18.589Z,99683.78
2018-07-22T16:46:47.068Z,99688.33
2018-07-22T16:49:15.572Z,99681.05
2018-07-22T16:51:44.079Z,99681.19
2018-07-22T16:54:12.581Z,99686.16
2018-07-22T16:56:41.158Z,99679.98
2018-07-22T16:59:09.740Z,99683.42
2018-07-22T17:01:38.283Z,99680.82
2018-07-22T17:04:06.813Z,99677.36
2018-07-22T17:06:35.406Z,99680.72
2018-07-22T17:09:05.920Z,99679.85
2018-07-22T17:11:34.572Z,99679.37
2018-07-22T17:14:03.190Z,99687.06
2018-07-22T17:16:31.744Z,99685.81
2018-07-22T17:19:00.388Z,99684.38
2018-07-22T17:21:29.165Z,99690.72
2018-07-22T17:23:57.695Z,99696.22
2018-07-22T17:26:26.232Z,99694.06
2018-07-22T17:28:54.786Z,99691.80
2018-07-22T17:31:23.291Z,99691.89
2018-07-22T17:33:51.800Z,99690.02
2018-07-22T17:36:20.521Z,99691.28
2018-07-22T17:38:49.106Z,99690.80
2018-07-22T17:41:17.792Z,99682.59
2018-07-22T17:43:46.346Z,99689.39
2018-07-22T17:46:14.992Z,99687.39
2018-07-22T17:48:43.791Z,99692.22
2018-07-22T17:51:12.456Z,99689.30
2018-07-22T17:53:41.248Z,99693.78
2018-07-22T17:56:09.807Z,99694.59
2018-07-22T17:58:38.442Z,99701.25
2018-07-22T18:01:06.991Z,99699.84
2018-07-22T18:03:35.500Z,99698.40
2018-07-22T18:06:04.147Z,99702.74
2018-07-22T18:08:32.694Z,99691.79
2018-07-22T18:11:01.202Z,99703.45
2018-07-22T18:13:29.728Z,99698.48
2018-07-22T18:15:58.251Z,99702.66
2018-07-22T18:18:26.786Z,99698.55
2018-07-22T18:20:55.322Z,99693.88
2018-07-22T18:23:23.854Z,99697.45
2018-07-22T18:25:52.401Z,99698.58
2018-07-22T18:28:20.871Z,99704.74
2018-07-22T18:30:49.330Z,99703.66
2018-07-22T18:33:18.298Z,99702.72
2018-07-22T18:35:46.804Z,99708.05
2018-07-22T18:38:16.053Z,99709.69
2018-07-22T18:40:44.606Z,99707.52
2018-07-22T18:43:13.150Z,99706.94
2018-07-22T18:45:41.646Z,99709.21
2018-07-22T18:48:10.217Z,99707.76
2018-07-22T18:50:38.722Z,99718.67
2018-07-22T18:53:07.268Z,99718.95
2018-07-22T18:55:35.809Z,99713.49
2018-07-22T18:58:04.300Z,99715.09
2018-07-22T19:00:32.862Z,99716.72
2018-07-22T19:03:01.351Z,99715.39
2018-07-22T19:05:29.861Z,99722.53
2018-07-22T19:07:58.450Z,99717.66
2018-07-22T19:10:27.048Z,99727.66
2018-07-22T19:12:55.661Z,99721.72
2018-07-22T19:15:24.300Z,99724.09
2018-07-22T19:17:53.283Z,99729.49
2018-07-22T19:20:22.005Z,99730.67
2018-07-22T19:22:50.573Z,99731.19
2018-07-22T19:25:19.368Z,99738.28
2018-07-22T19:27:47.961Z,99736.97
2018-07-22T19:30:16.544Z,99739.34
2018-07-22T19:32:45.024Z,99745.59
2018-07-22T19:35:13.731Z,99746.95
2018-07-22T19:37:42.287Z,99746.62
2018-07-22T19:40:10.913Z,99746.77
2018-07-22T19:42:39.419Z,99745.20
2018-07-22T19:45:07.900Z,99751.59
2018-07-22T19:47:36.430Z,99755.37
2018-07-22T19:50:04.957Z,99761.39
2018-07-22T19:52:33.456Z,99761.52
2018-07-22T19:55:01.945Z,99763.34
2018-07-22T19:57:30.561Z,99769.36
2018-07-22T19:59:59.063Z,99776.45
2018-07-22T20:02:27.483Z,99777.45
2018-07-22T20:04:55.998Z,99774.03
2018-07-22T20:07:24.438Z,99779.16
2018-07-22T20:09:52.958Z,99782.30
2018-07-22T20:12:21.407Z,99785.34
2018-07-22T20:14:50.013Z,99784.50
2018-07-22T20:17:18.588Z,99786.80
2018-07-22T20:19:47.115Z,99789.98
2018-07-22T20:22:15.709Z,99790.45
2018-07-22T20:24:44.169Z,99794.47
2018-07-22T20:27:12.732Z,99797.05
2018-07-22T20:29:41.155Z,99797.41
2018-07-22T20:32:09.588Z,99798.59
2018-07-22T20:34:38.296Z,99799.66
2018-07-22T20:37:06.875Z,99806.84
2018-07-22T20:39:35.421Z,99814.98
2018-07-22T20:42:03.937Z,99813.73
2018-07-22T20:44:32.447Z,99817.84
2018-07-22T20:47:00.898Z,99812.69
2018-07-22T20:49:29.424Z,99814.00
2018-07-22T20:51:58.062Z,99818.10
2018-07-22T20:54:26.643Z,99825.16
2018-07-22T20:56:55.158Z,99826.97
2018-07-22T20:59:23.760Z,99826.13
2018-07-22T21:01:52.415Z,99826.97
2018-07-22T21:04:20.952Z,99830.46
2018-07-22T21:06:49.511Z,99832.73
2018-07-22T21:09:18.080Z,99830.02
2018-07-22T21:14:01.635Z,99835.81
2018-07-22T21:16:30.443Z,99837.57
2018-07-22T21:18:59.010Z,99842.48
2018-07-22T21:21:29.157Z,99842.94
2018-07-22T21:23:57.714Z,99845.17
2018-07-22T21:26:26.336Z,99845.46
2018-07-22T21:28:54.952Z,99845.81
2018-07-22T21:31:23.459Z,99846.14
2018-07-22T21:33:52.068Z,99854.00
2018-07-22T21:36:20.573Z,99856.72
2018-07-22T21:38:49.143Z,99859.34
2018-07-22T21:41:17.739Z,99852.95
2018-07-22T21:43:46.283Z,99861.90
2018-07-22T21:46:14.766Z,99863.18
2018-07-22T21:48:43.295Z,99863.12
2018-07-22T21:51:11.835Z,99868.41
2018-07-22T21:53:40.376Z,99872.61
2018-07-22T21:56:08.931Z,99867.69
2018-07-22T21:58:37.483Z,99872.07
2018-07-22T22:01:06.031Z,99879.19
2018-07-22T22:03:34.547Z,99880.92
2018-07-22T22:06:03.113Z,99882.94
2018-07-22T22:08:31.597Z,99879.14
2018-07-22T22:11:00.078Z,99881.53
2018-07-22T22:13:28.540Z,99878.19
2018-07-22T22:15:57.027Z,99878.40
2018-07-22T22:18:25.561Z,99881.25
2018-07-22T22:20:54.030Z,99881.00
2018-07-22T22:23:22.481Z,99889.88
2018-07-22T22:25:50.939Z,99885.78
2018-07-22T22:28:19.468Z,99889.92
2018-07-22T22:30:47.973Z,99887.53
2018-07-22T22:33:16.613Z,99887.25
2018-07-22T22:35:45.204Z,99887.71
2018-07-22T22:38:13.684Z,99883.88
2018-07-22T22:40:42.187Z,99883.88
2018-07-22T22:43:10.634Z,99885.41
2018-07-22T22:45:39.217Z,99884.75
2018-07-22T22:48:07.799Z,99883.50
2018-07-22T22:50:36.426Z,99887.25
2018-07-22T22:53:04.937Z,99885.62
2018-07-22T22:55:33.396Z,99885.70
2018-07-22T23:00:08.523Z,99889.83
2018-07-22T23:02:38.059Z,99894.22
2018-07-22T23:05:07.948Z,99890.03
2018-07-22T23:07:36.494Z,99891.91
2018-07-22T23:10:05.591Z,99882.75
2018-07-22T23:12:34.171Z,99882.00
2018-07-22T23:15:02.856Z,99886.17
2018-07-22T23:17:31.434Z,99885.04
2018-07-22T23:20:00.080Z,99887.91
2018-07-22T23:22:28.543Z,99883.31
2018-07-22T23:24:57.004Z,99887.52
2018-07-22T23:27:25.523Z,99890.47
2018-07-22T23:29:54.337Z,99888.84
2018-07-22T23:32:22.853Z,99884.78
2018-07-22T23:34:51.333Z,99888.98
2018-07-22T23:37:19.853Z,99890.67
2018-07-22T23:39:48.398Z,99896.30
2018-07-22T23:42:16.942Z,99902.87
2018-07-22T23:44:45.480Z,99904.78
2018-07-22T23:47:13.992Z,99904.48
2018-07-22T23:49:42.539Z,99899.33
2018-07-22T23:52:11.097Z,99896.09
2018-07-22T23:54:39.805Z,99890.59
2018-07-22T23:57:08.465Z,99890.41
2018-07-22T23:59:37.024Z,99891.14
